This is the latest recevied weather packets stored in our database for station/object KC4JES. If no packets are shown the sender has not sent any weather packets the latest 10 day(s).
| Time | Temp. | Humidity | Pressure | Rain* | Wind** | Luminosity | Snow |
|---|---|---|---|---|---|---|---|
| 1777567425 | 28.89° C | 64% | 1011.5 hPa | 0 mm | - | 139 W/m² | - |
| 1777567123 | 28.89° C | 64% | 1011.5 hPa | 0 mm | - | 229 W/m² | - |
| 1777566821 | 29.44° C | 62% | 1011.5 hPa | 0 mm | - | 214 W/m² | - |
| 1777566519 | 28.89° C | 62% | 1011.4 hPa | 0 mm | - | 180 W/m² | - |
| 1777566216 | 28.33° C | 63% | 1011.9 hPa | 0 mm | - | 171 W/m² | - |
| 1777565912 | 28.89° C | 63% | 1011.8 hPa | 0 mm | - | 185 W/m² | - |
| 1777565608 | 28.33° C | 67% | 1011.7 hPa | 0 mm | - | 217 W/m² | - |
| 1777565305 | 28.33° C | 65% | 1011.6 hPa | 0 mm | - | 217 W/m² | - |
| 1777565001 | 27.78° C | 68% | 1011.8 hPa | 0 mm | - | 297 W/m² | - |
| 1777564697 | 27.78° C | 66% | 1011.9 hPa | 0 mm | - | 254 W/m² | - |
| 1777564397 | 28.33° C | 65% | 1012.2 hPa | 0 mm | - | 205 W/m² | - |
| 1777564094 | 28.33° C | 65% | 1012.1 hPa | 0 mm | - | 215 W/m² | - |
| 1777563789 | 28.33° C | 66% | 1012.1 hPa | 0 mm | - | 164 W/m² | - |
| 1777563486 | 27.78° C | 67% | 1012.2 hPa | 0 mm | - | 128 W/m² | - |
| 1777563185 | 27.22° C | 70% | 1012.2 hPa | 0 mm | - | 148 W/m² | - |
| 1777562882 | 27.22° C | 73% | 1012 hPa | 0 mm | - | 154 W/m² | - |
| 1777562578 | 27.22° C | 69% | 1012.1 hPa | 0 mm | - | 128 W/m² | - |
| 1777562277 | 26.67° C | 75% | 1012.2 hPa | 0 mm | - | 159 W/m² | - |
| 1777561974 | 26.67° C | 74% | 1011.8 hPa | 0 mm | - | 155 W/m² | - |
| 1777561671 | 27.22° C | 74% | 1011.8 hPa | 0 mm | - | 139 W/m² | - |
| 1777561366 | 26.67° C | 75% | 1011.9 hPa | 0 mm | - | 113 W/m² | - |
| 1777561062 | 26.67° C | 77% | 1011.6 hPa | 0 mm | - | 114 W/m² | - |
| 1777560757 | 26.11° C | 78% | 1012.1 hPa | 0 mm | - | 172 W/m² | - |
| 1777560455 | 26.11° C | 78% | 1012.2 hPa | 0 mm | - | 143 W/m² | - |
| 1777560152 | 25.56° C | 78% | 1012.1 hPa | 0 mm | - | 187 W/m² | - |
* Rain latest hour (hover to see other rain measurements)
** Current wind speed in m/s (hover to see current wind gust speed)